sensor_id;sensor_type;location;lat;lon;timestamp;temperature;humidity
27224;DHT22;14965;50.660;13.226;2022-09-03T00:00:18;9.80;99.90
27224;DHT22;14965;50.660;13.226;2022-09-03T00:02:46;9.80;99.90
27224;DHT22;14965;50.660;13.226;2022-09-03T00:05:19;9.80;99.90
27224;DHT22;14965;50.660;13.226;2022-09-03T00:07:51;9.90;99.90
27224;DHT22;14965;50.660;13.226;2022-09-03T00:10:23;9.90;99.90
27224;DHT22;14965;50.660;13.226;2022-09-03T00:12:55;10.00;99.90
27224;DHT22;14965;50.660;13.226;2022-09-03T00:15:23;10.00;99.90
27224;DHT22;14965;50.660;13.226;2022-09-03T00:17:50;10.00;99.90
27224;DHT22;14965;50.660;13.226;2022-09-03T00:20:23;10.10;99.90
27224;DHT22;14965;50.660;13.226;2022-09-03T00:22:53;10.10;99.90
27224;DHT22;14965;50.660;13.226;2022-09-03T00:25:22;10.10;99.90
27224;DHT22;14965;50.660;13.226;2022-09-03T00:27:52;10.20;99.90
27224;DHT22;14965;50.660;13.226;2022-09-03T00:30:21;10.20;99.90
27224;DHT22;14965;50.660;13.226;2022-09-03T00:32:47;10.20;99.90
27224;DHT22;14965;50.660;13.226;2022-09-03T00:35:19;10.20;99.90
27224;DHT22;14965;50.660;13.226;2022-09-03T00:37:51;10.30;99.90
27224;DHT22;14965;50.660;13.226;2022-09-03T00:40:22;10.30;99.90
27224;DHT22;14965;50.660;13.226;2022-09-03T00:43:01;10.30;99.90
27224;DHT22;14965;50.660;13.226;2022-09-03T00:45:38;10.30;99.90
27224;DHT22;14965;50.660;13.226;2022-09-03T00:48:15;10.30;99.90
27224;DHT22;14965;50.660;13.226;2022-09-03T00:50:51;10.40;99.90
27224;DHT22;14965;50.660;13.226;2022-09-03T00:53:30;10.40;99.90
27224;DHT22;14965;50.660;13.226;2022-09-03T00:56:04;10.40;99.90
27224;DHT22;14965;50.660;13.226;2022-09-03T00:58:48;10.30;99.90
27224;DHT22;14965;50.660;13.226;2022-09-03T01:01:27;10.30;99.90
27224;DHT22;14965;50.660;13.226;2022-09-03T01:04:01;10.30;99.90
27224;DHT22;14965;50.660;13.226;2022-09-03T01:06:41;10.30;99.90
27224;DHT22;14965;50.660;13.226;2022-09-03T01:09:21;10.40;99.90
27224;DHT22;14965;50.660;13.226;2022-09-03T01:11:57;10.40;99.90
27224;DHT22;14965;50.660;13.226;2022-09-03T01:14:28;10.40;99.90
27224;DHT22;14965;50.660;13.226;2022-09-03T01:17:06;10.40;99.90
27224;DHT22;14965;50.660;13.226;2022-09-03T01:19:43;10.40;99.90
27224;DHT22;14965;50.660;13.226;2022-09-03T01:22:28;10.40;99.90
27224;DHT22;14965;50.660;13.226;2022-09-03T01:25:22;10.40;99.90
27224;DHT22;14965;50.660;13.226;2022-09-03T01:28:09;10.40;99.90
27224;DHT22;14965;50.660;13.226;2022-09-03T01:30:43;10.40;99.90
27224;DHT22;14965;50.660;13.226;2022-09-03T01:33:15;10.40;99.90
27224;DHT22;14965;50.660;13.226;2022-09-03T01:35:49;10.40;99.90
27224;DHT22;14965;50.660;13.226;2022-09-03T01:38:21;10.40;99.90
27224;DHT22;14965;50.660;13.226;2022-09-03T01:40:57;10.40;99.90
27224;DHT22;14965;50.660;13.226;2022-09-03T01:43:36;10.40;99.90
27224;DHT22;14965;50.660;13.226;2022-09-03T01:46:10;10.40;99.90
27224;DHT22;14965;50.660;13.226;2022-09-03T01:48:43;10.30;99.90
27224;DHT22;14965;50.660;13.226;2022-09-03T01:51:18;10.30;99.90
27224;DHT22;14965;50.660;13.226;2022-09-03T01:53:55;10.30;99.90
27224;DHT22;14965;50.660;13.226;2022-09-03T01:56:36;10.30;99.90
27224;DHT22;14965;50.660;13.226;2022-09-03T01:59:14;10.30;99.90
27224;DHT22;14965;50.660;13.226;2022-09-03T02:01:48;10.30;99.90
27224;DHT22;14965;50.660;13.226;2022-09-03T02:04:18;10.20;99.90
27224;DHT22;14965;50.660;13.226;2022-09-03T02:06:46;10.20;99.90
27224;DHT22;14965;50.660;13.226;2022-09-03T02:09:13;10.20;99.90
27224;DHT22;14965;50.660;13.226;2022-09-03T02:11:39;10.20;99.90
27224;DHT22;14965;50.660;13.226;2022-09-03T02:14:05;10.20;99.90
27224;DHT22;14965;50.660;13.226;2022-09-03T02:16:32;10.10;99.90
27224;DHT22;14965;50.660;13.226;2022-09-03T02:19:01;10.10;99.90
27224;DHT22;14965;50.660;13.226;2022-09-03T02:21:30;10.10;99.90
27224;DHT22;14965;50.660;13.226;2022-09-03T02:23:58;10.10;99.90
27224;DHT22;14965;50.660;13.226;2022-09-03T02:26:25;10.10;99.90
27224;DHT22;14965;50.660;13.226;2022-09-03T02:28:52;10.10;99.90
27224;DHT22;14965;50.660;13.226;2022-09-03T02:31:18;10.10;99.90
27224;DHT22;14965;50.660;13.226;2022-09-03T02:33:46;10.10;99.90
27224;DHT22;14965;50.660;13.226;2022-09-03T02:36:14;10.10;99.90
27224;DHT22;14965;50.660;13.226;2022-09-03T02:38:43;10.00;99.90
27224;DHT22;14965;50.660;13.226;2022-09-03T02:41:10;10.00;99.90
27224;DHT22;14965;50.660;13.226;2022-09-03T02:43:38;10.00;99.90
27224;DHT22;14965;50.660;13.226;2022-09-03T02:46:08;10.00;99.90
27224;DHT22;14965;50.660;13.226;2022-09-03T02:48:38;10.00;99.90
27224;DHT22;14965;50.660;13.226;2022-09-03T02:51:05;10.00;99.90
27224;DHT22;14965;50.660;13.226;2022-09-03T02:53:31;10.00;99.90
27224;DHT22;14965;50.660;13.226;2022-09-03T02:55:57;10.00;99.90
27224;DHT22;14965;50.660;13.226;2022-09-03T02:58:23;10.00;99.90
27224;DHT22;14965;50.660;13.226;2022-09-03T03:00:49;9.90;99.90
27224;DHT22;14965;50.660;13.226;2022-09-03T03:03:15;10.00;99.90
27224;DHT22;14965;50.660;13.226;2022-09-03T03:05:41;9.90;99.90
27224;DHT22;14965;50.660;13.226;2022-09-03T03:08:10;9.90;99.90
27224;DHT22;14965;50.660;13.226;2022-09-03T03:10:37;9.90;99.90
27224;DHT22;14965;50.660;13.226;2022-09-03T03:13:03;9.90;99.90
27224;DHT22;14965;50.660;13.226;2022-09-03T03:15:28;9.90;99.90
27224;DHT22;14965;50.660;13.226;2022-09-03T03:17:54;9.90;99.90
27224;DHT22;14965;50.660;13.226;2022-09-03T03:20:20;9.90;99.90
27224;DHT22;14965;50.660;13.226;2022-09-03T03:22:46;9.90;99.90
27224;DHT22;14965;50.660;13.226;2022-09-03T03:25:13;9.90;99.90
27224;DHT22;14965;50.660;13.226;2022-09-03T03:27:39;9.80;99.90
27224;DHT22;14965;50.660;13.226;2022-09-03T03:30:05;9.80;99.90
27224;DHT22;14965;50.660;13.226;2022-09-03T03:32:31;9.90;99.90
27224;DHT22;14965;50.660;13.226;2022-09-03T03:34:57;9.80;99.90
27224;DHT22;14965;50.660;13.226;2022-09-03T03:37:23;9.80;99.90
27224;DHT22;14965;50.660;13.226;2022-09-03T03:39:49;9.80;99.90
27224;DHT22;14965;50.660;13.226;2022-09-03T03:42:16;9.70;99.90
27224;DHT22;14965;50.660;13.226;2022-09-03T03:44:41;9.70;99.90
27224;DHT22;14965;50.660;13.226;2022-09-03T03:47:07;9.70;99.90
27224;DHT22;14965;50.660;13.226;2022-09-03T03:49:33;9.70;99.90
27224;DHT22;14965;50.660;13.226;2022-09-03T03:51:58;9.70;99.90
27224;DHT22;14965;50.660;13.226;2022-09-03T03:54:24;9.70;99.90
27224;DHT22;14965;50.660;13.226;2022-09-03T03:56:50;9.70;99.90
27224;DHT22;14965;50.660;13.226;2022-09-03T03:59:17;9.70;99.90
27224;DHT22;14965;50.660;13.226;2022-09-03T04:01:43;9.70;99.90
27224;DHT22;14965;50.660;13.226;2022-09-03T04:04:08;9.70;99.90
27224;DHT22;14965;50.660;13.226;2022-09-03T04:06:34;9.80;99.90
27224;DHT22;14965;50.660;13.226;2022-09-03T04:09:00;9.90;99.90
27224;DHT22;14965;50.660;13.226;2022-09-03T04:11:26;9.80;99.90
27224;DHT22;14965;50.660;13.226;2022-09-03T04:13:52;9.90;99.90
27224;DHT22;14965;50.660;13.226;2022-09-03T04:16:20;9.80;99.90
27224;DHT22;14965;50.660;13.226;2022-09-03T04:18:47;9.90;99.90
27224;DHT22;14965;50.660;13.226;2022-09-03T04:21:14;9.90;99.90
27224;DHT22;14965;50.660;13.226;2022-09-03T04:23:42;9.90;99.90
27224;DHT22;14965;50.660;13.226;2022-09-03T04:26:10;9.90;99.90
27224;DHT22;14965;50.660;13.226;2022-09-03T04:28:37;9.90;99.90
27224;DHT22;14965;50.660;13.226;2022-09-03T04:31:04;9.90;99.90
27224;DHT22;14965;50.660;13.226;2022-09-03T04:33:33;9.90;99.90
27224;DHT22;14965;50.660;13.226;2022-09-03T04:36:06;9.90;99.90
27224;DHT22;14965;50.660;13.226;2022-09-03T04:38:33;9.90;99.90
27224;DHT22;14965;50.660;13.226;2022-09-03T04:41:00;9.90;99.90
27224;DHT22;14965;50.660;13.226;2022-09-03T04:43:26;9.90;99.90
27224;DHT22;14965;50.660;13.226;2022-09-03T04:45:54;9.90;99.90
27224;DHT22;14965;50.660;13.226;2022-09-03T04:48:21;9.80;99.90
27224;DHT22;14965;50.660;13.226;2022-09-03T04:50:48;9.80;99.90
27224;DHT22;14965;50.660;13.226;2022-09-03T04:53:13;9.80;99.90
27224;DHT22;14965;50.660;13.226;2022-09-03T04:55:39;9.90;99.90
27224;DHT22;14965;50.660;13.226;2022-09-03T04:58:05;9.90;99.90
27224;DHT22;14965;50.660;13.226;2022-09-03T05:00:31;9.90;99.90
27224;DHT22;14965;50.660;13.226;2022-09-03T05:02:58;9.90;99.90
27224;DHT22;14965;50.660;13.226;2022-09-03T05:05:24;10.00;99.90
27224;DHT22;14965;50.660;13.226;2022-09-03T05:07:51;10.00;99.90
27224;DHT22;14965;50.660;13.226;2022-09-03T05:10:17;10.10;99.90
27224;DHT22;14965;50.660;13.226;2022-09-03T05:12:43;10.20;99.90
27224;DHT22;14965;50.660;13.226;2022-09-03T05:15:09;10.30;99.90
27224;DHT22;14965;50.660;13.226;2022-09-03T05:17:35;10.40;99.90
27224;DHT22;14965;50.660;13.226;2022-09-03T05:20:00;10.40;99.90
27224;DHT22;14965;50.660;13.226;2022-09-03T05:22:26;10.50;99.90
27224;DHT22;14965;50.660;13.226;2022-09-03T05:24:53;10.60;99.90
27224;DHT22;14965;50.660;13.226;2022-09-03T05:27:19;10.60;99.90
27224;DHT22;14965;50.660;13.226;2022-09-03T05:29:45;10.80;99.90
27224;DHT22;14965;50.660;13.226;2022-09-03T05:32:11;11.40;99.90
27224;DHT22;14965;50.660;13.226;2022-09-03T05:34:37;11.90;99.90
27224;DHT22;14965;50.660;13.226;2022-09-03T05:37:03;12.20;99.90
27224;DHT22;14965;50.660;13.226;2022-09-03T05:39:28;12.20;99.90
27224;DHT22;14965;50.660;13.226;2022-09-03T05:41:56;12.20;99.90
27224;DHT22;14965;50.660;13.226;2022-09-03T05:44:21;12.20;99.90
27224;DHT22;14965;50.660;13.226;2022-09-03T05:46:47;12.10;99.90
27224;DHT22;14965;50.660;13.226;2022-09-03T05:49:14;12.60;99.90
27224;DHT22;14965;50.660;13.226;2022-09-03T05:51:39;13.80;99.90
27224;DHT22;14965;50.660;13.226;2022-09-03T05:54:07;15.60;99.90
27224;DHT22;14965;50.660;13.226;2022-09-03T05:56:33;17.30;99.90
27224;DHT22;14965;50.660;13.226;2022-09-03T05:59:02;18.40;99.90
27224;DHT22;14965;50.660;13.226;2022-09-03T06:01:30;19.00;99.90
27224;DHT22;14965;50.660;13.226;2022-09-03T06:03:57;19.00;99.90
27224;DHT22;14965;50.660;13.226;2022-09-03T06:06:24;18.80;99.90
27224;DHT22;14965;50.660;13.226;2022-09-03T06:08:51;17.90;99.90
27224;DHT22;14965;50.660;13.226;2022-09-03T06:11:18;17.30;99.90
27224;DHT22;14965;50.660;13.226;2022-09-03T06:13:44;16.70;99.90
27224;DHT22;14965;50.660;13.226;2022-09-03T06:16:11;16.20;99.90
27224;DHT22;14965;50.660;13.226;2022-09-03T06:18:36;15.80;99.90
27224;DHT22;14965;50.660;13.226;2022-09-03T06:21:03;15.40;99.90
27224;DHT22;14965;50.660;13.226;2022-09-03T06:23:30;15.00;99.90
27224;DHT22;14965;50.660;13.226;2022-09-03T06:26:01;14.70;99.90
27224;DHT22;14965;50.660;13.226;2022-09-03T06:28:29;14.40;99.90
27224;DHT22;14965;50.660;13.226;2022-09-03T06:30:56;14.20;99.90
27224;DHT22;14965;50.660;13.226;2022-09-03T06:33:24;14.10;99.90
27224;DHT22;14965;50.660;13.226;2022-09-03T06:35:51;14.00;99.90
27224;DHT22;14965;50.660;13.226;2022-09-03T06:38:18;13.90;99.90
27224;DHT22;14965;50.660;13.226;2022-09-03T06:40:44;13.90;99.90
27224;DHT22;14965;50.660;13.226;2022-09-03T06:43:17;13.90;99.90
27224;DHT22;14965;50.660;13.226;2022-09-03T06:45:43;13.90;99.90
27224;DHT22;14965;50.660;13.226;2022-09-03T06:48:17;14.00;99.90
27224;DHT22;14965;50.660;13.226;2022-09-03T06:50:44;14.00;99.90
27224;DHT22;14965;50.660;13.226;2022-09-03T06:53:18;14.10;99.90
27224;DHT22;14965;50.660;13.226;2022-09-03T06:55:51;14.10;99.90
27224;DHT22;14965;50.660;13.226;2022-09-03T06:58:17;14.10;99.90
27224;DHT22;14965;50.660;13.226;2022-09-03T07:00:43;14.10;99.90
27224;DHT22;14965;50.660;13.226;2022-09-03T07:03:09;14.20;99.90
27224;DHT22;14965;50.660;13.226;2022-09-03T07:05:34;14.20;99.90
27224;DHT22;14965;50.660;13.226;2022-09-03T07:08:01;14.20;99.90
27224;DHT22;14965;50.660;13.226;2022-09-03T07:10:27;14.20;99.90
27224;DHT22;14965;50.660;13.226;2022-09-03T07:12:53;14.30;99.90
27224;DHT22;14965;50.660;13.226;2022-09-03T07:15:19;14.30;99.90
27224;DHT22;14965;50.660;13.226;2022-09-03T07:17:44;14.40;99.90
27224;DHT22;14965;50.660;13.226;2022-09-03T07:20:10;14.50;99.90
27224;DHT22;14965;50.660;13.226;2022-09-03T07:22:36;14.50;99.90
27224;DHT22;14965;50.660;13.226;2022-09-03T07:25:03;14.60;99.90
27224;DHT22;14965;50.660;13.226;2022-09-03T07:27:30;14.60;99.90
27224;DHT22;14965;50.660;13.226;2022-09-03T07:29:55;14.60;99.90
27224;DHT22;14965;50.660;13.226;2022-09-03T07:32:21;14.70;99.90
27224;DHT22;14965;50.660;13.226;2022-09-03T07:34:47;14.70;99.90
27224;DHT22;14965;50.660;13.226;2022-09-03T07:37:12;14.80;99.90
27224;DHT22;14965;50.660;13.226;2022-09-03T07:39:38;14.80;99.90
27224;DHT22;14965;50.660;13.226;2022-09-03T07:42:05;14.90;99.90
27224;DHT22;14965;50.660;13.226;2022-09-03T07:44:31;15.00;99.90
27224;DHT22;14965;50.660;13.226;2022-09-03T07:46:57;15.00;99.90
27224;DHT22;14965;50.660;13.226;2022-09-03T07:49:22;15.10;99.90
27224;DHT22;14965;50.660;13.226;2022-09-03T07:51:48;15.10;99.90
27224;DHT22;14965;50.660;13.226;2022-09-03T07:54:16;15.20;99.90
27224;DHT22;14965;50.660;13.226;2022-09-03T07:56:42;15.20;99.90
27224;DHT22;14965;50.660;13.226;2022-09-03T07:59:09;15.30;99.90
27224;DHT22;14965;50.660;13.226;2022-09-03T08:01:35;15.40;99.90
27224;DHT22;14965;50.660;13.226;2022-09-03T08:04:02;15.40;99.90
27224;DHT22;14965;50.660;13.226;2022-09-03T08:06:28;15.40;99.90
27224;DHT22;14965;50.660;13.226;2022-09-03T08:08:55;15.40;99.90
27224;DHT22;14965;50.660;13.226;2022-09-03T08:11:22;15.30;99.90
27224;DHT22;14965;50.660;13.226;2022-09-03T08:13:48;15.40;99.90
27224;DHT22;14965;50.660;13.226;2022-09-03T08:16:20;15.30;99.90
27224;DHT22;14965;50.660;13.226;2022-09-03T08:18:46;15.30;99.90
27224;DHT22;14965;50.660;13.226;2022-09-03T08:21:13;15.40;99.90
27224;DHT22;14965;50.660;13.226;2022-09-03T08:23:40;15.60;99.90
27224;DHT22;14965;50.660;13.226;2022-09-03T08:26:07;15.90;99.90
27224;DHT22;14965;50.660;13.226;2022-09-03T08:28:34;16.10;99.90
27224;DHT22;14965;50.660;13.226;2022-09-03T08:31:03;16.30;99.90
27224;DHT22;14965;50.660;13.226;2022-09-03T08:33:31;16.30;99.90
27224;DHT22;14965;50.660;13.226;2022-09-03T08:35:57;16.20;99.90
27224;DHT22;14965;50.660;13.226;2022-09-03T08:38:23;16.20;99.90
27224;DHT22;14965;50.660;13.226;2022-09-03T08:40:48;16.20;99.90
27224;DHT22;14965;50.660;13.226;2022-09-03T08:43:14;16.40;99.90
27224;DHT22;14965;50.660;13.226;2022-09-03T08:45:42;16.50;99.90
27224;DHT22;14965;50.660;13.226;2022-09-03T08:48:09;16.60;99.90
27224;DHT22;14965;50.660;13.226;2022-09-03T08:50:42;16.70;99.90
27224;DHT22;14965;50.660;13.226;2022-09-03T08:53:14;17.00;99.90
27224;DHT22;14965;50.660;13.226;2022-09-03T08:55:46;17.20;99.90
27224;DHT22;14965;50.660;13.226;2022-09-03T08:58:16;17.30;99.90
27224;DHT22;14965;50.660;13.226;2022-09-03T09:00:46;17.30;99.90
27224;DHT22;14965;50.660;13.226;2022-09-03T09:06:20;17.30;99.90
27224;DHT22;14965;50.660;13.226;2022-09-03T09:08:54;17.30;99.90
27224;DHT22;14965;50.660;13.226;2022-09-03T09:11:29;17.50;99.90
27224;DHT22;14965;50.660;13.226;2022-09-03T09:14:06;17.60;99.90
27224;DHT22;14965;50.660;13.226;2022-09-03T09:16:41;17.90;99.90
27224;DHT22;14965;50.660;13.226;2022-09-03T09:19:19;18.00;99.90
27224;DHT22;14965;50.660;13.226;2022-09-03T09:21:55;17.90;99.90
27224;DHT22;14965;50.660;13.226;2022-09-03T09:24:26;18.00;99.90
27224;DHT22;14965;50.660;13.226;2022-09-03T09:26:58;18.10;99.90
27224;DHT22;14965;50.660;13.226;2022-09-03T09:29:24;18.30;99.40
27224;DHT22;14965;50.660;13.226;2022-09-03T09:31:53;18.40;99.70
27224;DHT22;14965;50.660;13.226;2022-09-03T09:34:19;18.40;98.70
27224;DHT22;14965;50.660;13.226;2022-09-03T09:36:45;18.50;99.20
27224;DHT22;14965;50.660;13.226;2022-09-03T09:39:14;18.60;98.20
27224;DHT22;14965;50.660;13.226;2022-09-03T09:41:40;18.70;97.80
27224;DHT22;14965;50.660;13.226;2022-09-03T09:44:06;18.80;98.10
27224;DHT22;14965;50.660;13.226;2022-09-03T09:46:33;18.90;98.50
27224;DHT22;14965;50.660;13.226;2022-09-03T09:49:01;18.90;97.80
27224;DHT22;14965;50.660;13.226;2022-09-03T09:51:27;19.10;98.40
27224;DHT22;14965;50.660;13.226;2022-09-03T09:54:00;19.20;97.10
27224;DHT22;14965;50.660;13.226;2022-09-03T09:56:29;19.00;97.20
27224;DHT22;14965;50.660;13.226;2022-09-03T09:59:02;19.00;97.30
27224;DHT22;14965;50.660;13.226;2022-09-03T10:01:29;19.00;97.30
27224;DHT22;14965;50.660;13.226;2022-09-03T10:03:55;19.10;96.30
27224;DHT22;14965;50.660;13.226;2022-09-03T10:06:22;19.20;95.70
27224;DHT22;14965;50.660;13.226;2022-09-03T10:08:49;19.20;96.20
27224;DHT22;14965;50.660;13.226;2022-09-03T10:11:16;19.40;95.70
27224;DHT22;14965;50.660;13.226;2022-09-03T10:13:44;19.60;95.50
27224;DHT22;14965;50.660;13.226;2022-09-03T10:16:14;19.60;95.10
27224;DHT22;14965;50.660;13.226;2022-09-03T10:18:48;19.60;95.50
27224;DHT22;14965;50.660;13.226;2022-09-03T10:21:19;19.80;95.80
27224;DHT22;14965;50.660;13.226;2022-09-03T10:23:53;19.80;93.90
27224;DHT22;14965;50.660;13.226;2022-09-03T10:26:24;19.80;93.70
27224;DHT22;14965;50.660;13.226;2022-09-03T10:28:51;19.60;95.70
27224;DHT22;14965;50.660;13.226;2022-09-03T10:31:21;19.60;94.70
27224;DHT22;14965;50.660;13.226;2022-09-03T10:33:57;19.70;95.40
27224;DHT22;14965;50.660;13.226;2022-09-03T10:36:30;19.80;94.60
27224;DHT22;14965;50.660;13.226;2022-09-03T10:39:03;19.80;94.90
27224;DHT22;14965;50.660;13.226;2022-09-03T10:41:37;19.90;95.00
27224;DHT22;14965;50.660;13.226;2022-09-03T10:47:26;20.00;94.70
27224;DHT22;14965;50.660;13.226;2022-09-03T10:50:02;19.70;93.40
27224;DHT22;14965;50.660;13.226;2022-09-03T10:52:39;19.40;96.10
27224;DHT22;14965;50.660;13.226;2022-09-03T10:55:23;19.40;95.70
27224;DHT22;14965;50.660;13.226;2022-09-03T10:57:57;19.10;94.80
27224;DHT22;14965;50.660;13.226;2022-09-03T11:00:40;18.80;96.00
27224;DHT22;14965;50.660;13.226;2022-09-03T11:03:27;19.00;97.00
27224;DHT22;14965;50.660;13.226;2022-09-03T11:06:07;19.10;96.90
27224;DHT22;14965;50.660;13.226;2022-09-03T11:08:38;19.30;96.70
27224;DHT22;14965;50.660;13.226;2022-09-03T11:11:11;19.50;96.80
27224;DHT22;14965;50.660;13.226;2022-09-03T11:13:43;19.60;97.00
27224;DHT22;14965;50.660;13.226;2022-09-03T11:16:16;19.80;96.10
27224;DHT22;14965;50.660;13.226;2022-09-03T11:18:46;19.80;96.30
27224;DHT22;14965;50.660;13.226;2022-09-03T11:21:15;19.90;96.50
27224;DHT22;14965;50.660;13.226;2022-09-03T11:23:45;20.10;96.20
27224;DHT22;14965;50.660;13.226;2022-09-03T11:26:16;20.10;96.40
27224;DHT22;14965;50.660;13.226;2022-09-03T11:28:46;20.30;95.70
27224;DHT22;14965;50.660;13.226;2022-09-03T11:31:23;20.10;95.10
27224;DHT22;14965;50.660;13.226;2022-09-03T11:33:58;20.00;94.10
27224;DHT22;14965;50.660;13.226;2022-09-03T11:36:30;19.70;96.90
27224;DHT22;14965;50.660;13.226;2022-09-03T11:38:57;19.70;96.50
27224;DHT22;14965;50.660;13.226;2022-09-03T11:41:24;19.80;96.30
27224;DHT22;14965;50.660;13.226;2022-09-03T11:43:51;19.80;95.60
27224;DHT22;14965;50.660;13.226;2022-09-03T11:46:27;19.80;95.90
27224;DHT22;14965;50.660;13.226;2022-09-03T11:48:54;19.90;95.10
27224;DHT22;14965;50.660;13.226;2022-09-03T11:51:29;20.00;96.20
27224;DHT22;14965;50.660;13.226;2022-09-03T11:53:57;20.00;95.90
27224;DHT22;14965;50.660;13.226;2022-09-03T11:56:24;20.10;96.00
27224;DHT22;14965;50.660;13.226;2022-09-03T11:59:04;20.10;95.50
27224;DHT22;14965;50.660;13.226;2022-09-03T12:01:43;20.10;95.70
27224;DHT22;14965;50.660;13.226;2022-09-03T12:04:13;20.00;96.20
27224;DHT22;14965;50.660;13.226;2022-09-03T12:06:42;20.00;95.10
27224;DHT22;14965;50.660;13.226;2022-09-03T12:12:25;19.90;94.40
27224;DHT22;14965;50.660;13.226;2022-09-03T12:15:03;19.90;95.20
27224;DHT22;14965;50.660;13.226;2022-09-03T12:17:35;19.80;94.10
27224;DHT22;14965;50.660;13.226;2022-09-03T12:20:14;19.80;94.50
27224;DHT22;14965;50.660;13.226;2022-09-03T12:22:40;19.80;95.00
27224;DHT22;14965;50.660;13.226;2022-09-03T12:25:07;20.00;95.20
27224;DHT22;14965;50.660;13.226;2022-09-03T12:27:34;20.00;94.50
27224;DHT22;14965;50.660;13.226;2022-09-03T12:30:00;20.00;94.30
27224;DHT22;14965;50.660;13.226;2022-09-03T12:32:29;20.10;94.30
27224;DHT22;14965;50.660;13.226;2022-09-03T12:35:08;20.10;93.70
27224;DHT22;14965;50.660;13.226;2022-09-03T12:37:36;20.10;93.40
27224;DHT22;14965;50.660;13.226;2022-09-03T12:40:02;20.10;92.70
27224;DHT22;14965;50.660;13.226;2022-09-03T12:42:29;20.10;93.00
27224;DHT22;14965;50.660;13.226;2022-09-03T12:45:03;20.10;93.70
27224;DHT22;14965;50.660;13.226;2022-09-03T12:47:36;20.00;93.30
27224;DHT22;14965;50.660;13.226;2022-09-03T12:50:06;19.80;92.90
27224;DHT22;14965;50.660;13.226;2022-09-03T12:52:35;19.70;93.50
27224;DHT22;14965;50.660;13.226;2022-09-03T12:55:05;19.70;93.60
27224;DHT22;14965;50.660;13.226;2022-09-03T12:57:35;19.60;92.80
27224;DHT22;14965;50.660;13.226;2022-09-03T13:00:07;19.50;92.80
27224;DHT22;14965;50.660;13.226;2022-09-03T13:02:39;19.40;93.50
27224;DHT22;14965;50.660;13.226;2022-09-03T13:05:13;19.20;93.20
27224;DHT22;14965;50.660;13.226;2022-09-03T13:07:43;19.20;93.90
27224;DHT22;14965;50.660;13.226;2022-09-03T13:10:15;19.30;93.20
27224;DHT22;14965;50.660;13.226;2022-09-03T13:12:50;19.30;93.80
27224;DHT22;14965;50.660;13.226;2022-09-03T13:15:16;19.30;93.30
27224;DHT22;14965;50.660;13.226;2022-09-03T13:17:47;19.30;93.30
27224;DHT22;14965;50.660;13.226;2022-09-03T13:20:38;19.20;93.80
27224;DHT22;14965;50.660;13.226;2022-09-03T13:23:22;19.20;93.60
27224;DHT22;14965;50.660;13.226;2022-09-03T13:26:12;19.20;94.50
27224;DHT22;14965;50.660;13.226;2022-09-03T13:28:52;19.20;94.00
27224;DHT22;14965;50.660;13.226;2022-09-03T13:31:28;19.30;94.00
27224;DHT22;14965;50.660;13.226;2022-09-03T13:34:00;19.40;93.80
27224;DHT22;14965;50.660;13.226;2022-09-03T13:36:33;19.30;93.40
27224;DHT22;14965;50.660;13.226;2022-09-03T13:39:06;19.30;93.00
27224;DHT22;14965;50.660;13.226;2022-09-03T13:41:45;19.20;93.70
27224;DHT22;14965;50.660;13.226;2022-09-03T13:44:16;19.20;94.20
27224;DHT22;14965;50.660;13.226;2022-09-03T13:46:45;19.30;93.40
27224;DHT22;14965;50.660;13.226;2022-09-03T13:49:19;19.20;93.00
27224;DHT22;14965;50.660;13.226;2022-09-03T13:51:57;19.20;92.60
27224;DHT22;14965;50.660;13.226;2022-09-03T13:54:26;19.20;93.10
27224;DHT22;14965;50.660;13.226;2022-09-03T13:56:56;19.20;92.50
27224;DHT22;14965;50.660;13.226;2022-09-03T13:59:27;19.20;92.50
27224;DHT22;14965;50.660;13.226;2022-09-03T14:02:02;19.20;93.00
27224;DHT22;14965;50.660;13.226;2022-09-03T14:04:41;19.20;93.00
27224;DHT22;14965;50.660;13.226;2022-09-03T14:07:18;19.20;92.60
27224;DHT22;14965;50.660;13.226;2022-09-03T14:09:52;19.20;92.80
27224;DHT22;14965;50.660;13.226;2022-09-03T14:12:24;19.10;92.60
27224;DHT22;14965;50.660;13.226;2022-09-03T14:14:59;19.10;92.50
27224;DHT22;14965;50.660;13.226;2022-09-03T14:17:35;19.10;93.10
27224;DHT22;14965;50.660;13.226;2022-09-03T14:20:07;19.10;92.90
27224;DHT22;14965;50.660;13.226;2022-09-03T14:22:43;19.10;93.30
27224;DHT22;14965;50.660;13.226;2022-09-03T14:25:14;19.00;92.80
27224;DHT22;14965;50.660;13.226;2022-09-03T14:27:42;19.00;93.20
27224;DHT22;14965;50.660;13.226;2022-09-03T14:30:16;19.00;92.90
27224;DHT22;14965;50.660;13.226;2022-09-03T14:32:45;19.00;93.90
27224;DHT22;14965;50.660;13.226;2022-09-03T14:35:27;19.00;93.70
27224;DHT22;14965;50.660;13.226;2022-09-03T14:38:04;19.10;93.40
27224;DHT22;14965;50.660;13.226;2022-09-03T14:40:49;19.10;93.70
27224;DHT22;14965;50.660;13.226;2022-09-03T14:43:24;19.00;93.40
27224;DHT22;14965;50.660;13.226;2022-09-03T14:46:06;19.00;93.50
27224;DHT22;14965;50.660;13.226;2022-09-03T14:48:43;19.00;94.10
27224;DHT22;14965;50.660;13.226;2022-09-03T14:51:22;19.00;94.00
27224;DHT22;14965;50.660;13.226;2022-09-03T14:54:05;19.00;93.60
27224;DHT22;14965;50.660;13.226;2022-09-03T14:56:45;19.00;94.10
27224;DHT22;14965;50.660;13.226;2022-09-03T14:59:22;18.90;94.20
27224;DHT22;14965;50.660;13.226;2022-09-03T15:02:05;18.90;94.50
27224;DHT22;14965;50.660;13.226;2022-09-03T15:04:45;18.90;94.30
27224;DHT22;14965;50.660;13.226;2022-09-03T15:07:29;18.90;93.90
27224;DHT22;14965;50.660;13.226;2022-09-03T15:10:06;18.90;94.30
27224;DHT22;14965;50.660;13.226;2022-09-03T15:12:43;18.90;94.40
27224;DHT22;14965;50.660;13.226;2022-09-03T15:15:16;18.90;94.10
27224;DHT22;14965;50.660;13.226;2022-09-03T15:17:46;18.90;94.60
27224;DHT22;14965;50.660;13.226;2022-09-03T15:20:20;18.90;95.00
27224;DHT22;14965;50.660;13.226;2022-09-03T15:23:00;18.90;95.00
27224;DHT22;14965;50.660;13.226;2022-09-03T15:25:39;18.90;94.70
27224;DHT22;14965;50.660;13.226;2022-09-03T15:28:14;18.80;94.80
27224;DHT22;14965;50.660;13.226;2022-09-03T15:30:48;18.80;94.50
27224;DHT22;14965;50.660;13.226;2022-09-03T15:33:22;18.80;94.70
27224;DHT22;14965;50.660;13.226;2022-09-03T15:35:59;18.80;94.50
27224;DHT22;14965;50.660;13.226;2022-09-03T15:38:34;18.70;94.40
27224;DHT22;14965;50.660;13.226;2022-09-03T15:41:08;18.70;94.70
27224;DHT22;14965;50.660;13.226;2022-09-03T15:43:41;18.70;94.80
27224;DHT22;14965;50.660;13.226;2022-09-03T15:46:28;18.70;95.30